| time (UTC) | temp F | wind direction | speed knots | gust knots | rain 1hr in | rain 24hr in | rain mn in | humidity % | barometer mb |
| 20260906224526 | 96 | 146 | 8.7 | 15.6 | 0.00 | 0.00 | 0.00 | 45 | 1007.4 |
| 20260906223025 | 97 | 128 | 7.0 | 13.0 | 0.00 | 0.00 | 0.00 | 44 | 1007.4 |
| 20260906221524 | 97 | 128 | 2.6 | 12.2 | 0.00 | 0.00 | 0.00 | 45 | 1007.4 |
| 20260906220022 | 96 | 108 | 7.0 | 15.6 | 0.00 | 0.00 | 0.00 | 45 | 1007.4 |
| 20260906214524 | 97 | 109 | 7.0 | 12.2 | 0.00 | 0.00 | 0.00 | 45 | 1007.3 |
| 20260906213022 | 96 | 113 | 6.1 | 12.2 | 0.00 | 0.00 | 0.00 | 46 | 1007.5 |
| 20260906211520 | 97 | 126 | 9.6 | 14.8 | 0.00 | 0.00 | 0.00 | 45 | 1007.7 |
| 20260906210017 | 97 | 122 | 7.8 | 14.8 | 0.00 | 0.00 | 0.00 | 46 | 1008.0 |
| 20260906204513 | 97 | 101 | 6.1 | 12.2 | 0.00 | 0.00 | 0.00 | 45 | 1008.1 |
| 20260906203011 | 97 | 140 | 7.0 | 13.9 | 0.00 | 0.00 | 0.00 | 46 | 1008.4 |
| 20260906201509 | 97 | 121 | 7.8 | 15.6 | 0.00 | 0.00 | 0.00 | 45 | 1008.5 |
| 20260906200008 | 96 | 144 | 5.2 | 13.9 | 0.00 | 0.00 | 0.00 | 46 | 1008.7 |
| 20260906194507 | 96 | 105 | 2.6 | 13.0 | 0.00 | 0.00 | 0.00 | 45 | 1008.8 |
| 20260906193007 | 95 | 71 | 7.8 | 12.2 | 0.00 | 0.00 | 0.00 | 46 | 1009.0 |
| 20260906191511 | 96 | 178 | 4.3 | 13.0 | 0.00 | 0.00 | 0.00 | 45 | 1009.1 |
| 20260906190005 | 96 | 90 | 3.5 | 11.3 | 0.00 | 0.00 | 0.00 | 45 | 1009.3 |
| 20260906184503 | 95 | 115 | 5.2 | 11.3 | 0.00 | 0.00 | 0.00 | 48 | 1009.5 |
| 20260906183000 | 95 | 146 | 4.3 | 13.0 | 0.00 | 0.00 | 0.00 | 48 | 1009.7 |
| 20260906181604 | 95 | 132 | 5.2 | 12.2 | 0.00 | 0.00 | 0.00 | 50 | 1010.0 |
| 20260906180106 | 95 | 138 | 6.1 | 11.3 | 0.00 | 0.00 | 0.00 | 50 | 1010.2 |
| 20260906174557 | 94 | 97 | 6.1 | 12.2 | 0.00 | 0.00 | 0.00 | 50 | 1010.4 |
| 20260906173052 | 94 | 106 | 5.2 | 11.3 | 0.00 | 0.00 | 0.00 | 50 | 1010.5 |
| 20260906171556 | 93 | 130 | 7.0 | 13.0 | 0.00 | 0.00 | 0.00 | 52 | 1010.7 |
| 20260906170057 | 93 | 142 | 4.3 | 12.2 | 0.00 | 0.00 | 0.00 | 54 | 1010.9 |
| 20260906164545 | 92 | 78 | 4.3 | 10.4 | 0.00 | 0.00 | 0.00 | 55 | 1010.9 |
| 20260906163045 | 91 | 140 | 3.5 | 9.6 | 0.00 | 0.00 | 0.00 | 55 | 1010.8 |
| 20260906161541 | 91 | 94 | 5.2 | 9.6 | 0.00 | 0.00 | 0.00 | 55 | 1010.8 |
| 20260906160041 | 90 | 98 | 2.6 | 9.6 | 0.00 | 0.00 | 0.00 | 58 | 1010.8 |
| 20260906154537 | 90 | 85 | 3.5 | 8.7 | 0.00 | 0.00 | 0.00 | 59 | 1010.9 |
| 20260906153020 | 89 | 99 | 2.6 | 6.1 | 0.00 | 0.00 | 0.00 | 57 | 1010.7 |
| 20260906151516 | 88 | 82 | 0.9 | 3.5 | 0.00 | 0.00 | 0.00 | 64 | 1010.7 |
| 20260906150022 | 87 | 136 | 1.7 | 5.2 | 0.00 | 0.00 | 0.00 | 69 | 1010.6 |
| 20260906144512 | 86 | 101 | 0.0 | 2.6 | 0.00 | 0.00 | 0.00 | 72 | 1010.7 |
| 20260906143005 | 84 | 62 | 0.9 | 3.5 | 0.00 | 0.00 | 0.00 | 76 | 1010.8 |
| 20260906141503 | 82 | 72 | 1.7 | 3.5 | 0.00 | 0.00 | 0.00 | 80 | 1010.8 |
| 20260906140004 | 81 | 75 | 1.7 | 3.5 | 0.00 | 0.00 | 0.00 | 83 | 1010.8 |
| 20260906134502 | 80 | 55 | 1.7 | 3.5 | 0.00 | 0.00 | 0.00 | 85 | 1010.8 |
| 20260906133003 | 79 | 74 | 0.9 | 2.6 | 0.00 | 0.00 | 0.00 | 87 | 1010.7 |
| 20260906131559 | 78 | 87 | 0.9 | 2.6 | 0.00 | 0.00 | 0.00 | 88 | 1010.8 |
| 20260906130100 | 76 | 58 | 0.9 | 2.6 | 0.00 | 0.00 | 0.00 | 90 | 1010.7 |
| 20260906124557 | 76 | 17 | 0.0 | 0.0 | 0.00 | 0.00 | 0.00 | 91 | 1010.5 |
| 20260906123056 | 75 | 17 | 0.0 | 0.0 | 0.00 | 0.00 | 0.00 | 91 | 1010.4 |
| 20260906121557 | 75 | 17 | 0.0 | 0.9 | 0.00 | 0.00 | 0.00 | 91 | 1010.3 |
| 20260906120110 | 75 | 17 | 0.0 | 0.9 | 0.00 | 0.00 | 0.00 | 90 | 1010.2 |
| 20260906114551 | 75 | 17 | 0.9 | 1.7 | 0.00 | 0.00 | 0.00 | 89 | 1010.1 |
| 20260906113052 | 76 | 130 | 0.0 | 1.7 | 0.00 | 0.00 | 0.00 | 89 | 1010.0 |
| 20260906111604 | 77 | 130 | 0.9 | 2.6 | 0.00 | 0.00 | 0.00 | 89 | 1009.8 |
| 20260906110045 | 77 | 130 | 1.7 | 5.2 | 0.00 | 0.00 | 0.00 | 88 | 1009.7 |
| 20260906104543 | 77 | 140 | 2.6 | 5.2 | 0.00 | 0.00 | 0.00 | 88 | 1009.5 |
| 20260906103143 | 77 | 122 | 2.6 | 5.2 | 0.00 | 0.00 | 0.00 | 89 | 1009.4 |
| 20260906101542 | 77 | 131 | 0.0 | 2.6 | 0.00 | 0.00 | 0.00 | 88 | 1009.4 |
| 20260906100041 | 77 | 131 | 0.0 | 0.0 | 0.00 | 0.00 | 0.00 | 87 | 1009.4 |
| 20260906094541 | 78 | 131 | 0.0 | 1.7 | 0.00 | 0.00 | 0.00 | 85 | 1009.3 |
| 20260906093040 | 78 | 131 | 0.0 | 1.7 | 0.00 | 0.00 | 0.00 | 84 | 1009.1 |
| 20260906091536 | 78 | 128 | 1.7 | 2.6 | 0.00 | 0.00 | 0.00 | 84 | 1009.0 |
| 20260906090035 | 79 | 146 | 0.9 | 2.6 | 0.00 | 0.00 | 0.00 | 84 | 1009.1 |
| 20260906084544 | 79 | 136 | 2.6 | 6.1 | 0.00 | 0.00 | 0.00 | 83 | 1008.8 |
| 20260906083036 | 79 | 135 | 0.9 | 3.5 | 0.00 | 0.00 | 0.00 | 81 | 1008.8 |
| 20260906081530 | 80 | 163 | 1.7 | 7.0 | 0.00 | 0.00 | 0.00 | 80 | 1008.7 |
| 20260906080034 | 80 | 158 | 1.7 | 4.3 | 0.00 | 0.00 | 0.00 | 79 | 1008.8 |
| 20260906074527 | 80 | 157 | 1.7 | 2.6 | 0.00 | 0.00 | 0.00 | 78 | 1008.6 |
| 20260906073032 | 80 | 157 | 1.7 | 2.6 | 0.00 | 0.00 | 0.00 | 77 | 1008.7 |
| 20260906071523 | 81 | 171 | 0.9 | 2.6 | 0.00 | 0.00 | 0.00 | 77 | 1008.8 |
| 20260906070022 | 81 | 172 | 1.7 | 4.3 | 0.00 | 0.00 | 0.00 | 78 | 1009.1 |
| 20260906064521 | 81 | 128 | 3.5 | 5.2 | 0.00 | 0.00 | 0.00 | 77 | 1009.2 |
| 20260906063020 | 81 | 148 | 3.5 | 7.0 | 0.00 | 0.00 | 0.00 | 77 | 1009.1 |
| 20260906061518 | 82 | 148 | 4.3 | 9.6 | 0.00 | 0.00 | 0.00 | 75 | 1009.0 |
| 20260906060019 | 82 | 161 | 3.5 | 6.1 | 0.00 | 0.00 | 0.00 | 74 | 1009.0 |
| 20260906054516 | 83 | 148 | 4.3 | 7.0 | 0.00 | 0.00 | 0.00 | 73 | 1009.3 |
| 20260906053012 | 83 | 159 | 2.6 | 6.1 | 0.00 | 0.00 | 0.00 | 73 | 1009.2 |
| 20260906051510 | 83 | 146 | 0.0 | 0.0 | 0.00 | 0.00 | 0.00 | 72 | 1009.0 |
| 20260906050008 | 83 | 146 | 0.0 | 0.0 | 0.00 | 0.00 | 0.00 | 72 | 1009.0 |
| 20260906044512 | 83 | 146 | 0.0 | 4.3 | 0.00 | 0.00 | 0.00 | 71 | 1009.1 |
| 20260906043007 | 84 | 128 | 3.5 | 6.1 | 0.00 | 0.00 | 0.00 | 71 | 1009.3 |
| 20260906041506 | 84 | 147 | 2.6 | 4.3 | 0.00 | 0.00 | 0.00 | 69 | 1009.1 |
| 20260906040009 | 85 | 161 | 3.5 | 7.0 | 0.00 | 0.00 | 0.00 | 68 | 1009.1 |
| 20260906034511 | 85 | 212 | 2.6 | 5.2 | 0.00 | 0.00 | 0.00 | 67 | 1009.1 |
| 20260906033016 | 85 | 150 | 2.6 | 6.1 | 0.00 | 0.00 | 0.00 | 66 | 1009.0 |
| 20260906031504 | 86 | 147 | 5.2 | 8.7 | 0.00 | 0.00 | 0.00 | 65 | 1009.0 |
| 20260906030004 | 86 | 133 | 5.2 | 8.7 | 0.00 | 0.00 | 0.00 | 64 | 1009.1 |
| 20260906024503 | 86 | 147 | 6.1 | 10.4 | 0.00 | 0.00 | 0.00 | 63 | 1009.0 |
| 20260906023104 | 87 | 142 | 6.1 | 10.4 | 0.00 | 0.00 | 0.00 | 62 | 1008.7 |
| 20260906021501 | 87 | 149 | 5.2 | 10.4 | 0.00 | 0.00 | 0.00 | 61 | 1008.5 |
| 20260906020101 | 87 | 151 | 6.1 | 10.4 | 0.00 | 0.00 | 0.00 | 60 | 1008.3 |
| 20260906014609 | 88 | 122 | 5.2 | 9.6 | 0.00 | 0.00 | 0.00 | 60 | 1008.1 |
| 20260906013100 | 89 | 138 | 7.0 | 14.8 | 0.00 | 0.00 | 0.00 | 58 | 1008.1 |
| 20260906011559 | 89 | 121 | 7.8 | 13.9 | 0.00 | 0.00 | 0.00 | 57 | 1007.8 |
| 20260906010113 | 91 | 128 | 9.6 | 16.5 | 0.00 | 0.00 | 0.00 | 56 | 1007.6 |
| 20260906004602 | 94 | 132 | 2.6 | 7.8 | 0.00 | 0.00 | 0.00 | 45 | 1007.3 |
| 20260906003112 | 95 | 152 | 4.3 | 7.8 | 0.00 | 0.00 | 0.00 | 45 | 1007.2 |
| 20260906001556 | 96 | 144 | 5.2 | 8.7 | 0.00 | 0.00 | 0.00 | 44 | 1007.2 |
| 20260906000103 | 96 | 132 | 4.3 | 8.7 | 0.00 | 0.00 | 0.00 | 44 | 1007.2 |
| 20260905234606 | 96 | 123 | 4.3 | 8.7 | 0.00 | 0.00 | 0.00 | 44 | 1007.0 |
| 20260905233056 | 96 | 108 | 6.1 | 9.6 | 0.00 | 0.00 | 0.00 | 43 | 1006.9 |
| 20260905231554 | 97 | 92 | 2.6 | 6.1 | 0.00 | 0.00 | 0.00 | 42 | 1006.9 |
| 20260905230053 | 97 | 82 | 1.7 | 7.0 | 0.00 | 0.00 | 0.00 | 43 | 1007.0 |
| 20260905224553 | 98 | 123 | 1.7 | 6.1 | 0.00 | 0.00 | 0.00 | 42 | 1006.8 |